Terminal Aerodrome Forecast
Issued by NWS Wilmington, OH

Current Version | Previous Version | Graphics & Text | Print | Product List | Glossary On
Versions: 1 2 3 4 5 6 7 8 9 10 11 12 13 14 15 16 17 18 19 20 21 22
000
FTUS41 KILN 182100 AAA
TAFDAY
TAF AMD
KDAY 182159Z 1822/1918 33012G17KT P6SM -SHRA OVC035
     FM182300 32011KT P6SM BKN025
     FM190200 31008KT P6SM BKN015
     FM190900 30004KT P6SM FEW025
     FM191500 28005KT P6SM FEW040=

USA.gov is the U.S. government's official web portal to all federal, state and local government web resources and services.